sensor_id;sensor_type;location;lat;lon;timestamp;P1;durP1;ratioP1;P2;durP2;ratioP2
76863;SDS011;65834;52.364;9.754;2023-05-28T00:01:47;14.68;;;5.22;;
76863;SDS011;65834;52.364;9.754;2023-05-28T00:04:19;13.55;;;6.18;;
76863;SDS011;65834;52.364;9.754;2023-05-28T00:06:51;13.10;;;6.28;;
76863;SDS011;65834;52.364;9.754;2023-05-28T00:09:22;17.02;;;6.03;;
76863;SDS011;65834;52.364;9.754;2023-05-28T00:11:52;17.30;;;6.22;;
76863;SDS011;65834;52.364;9.754;2023-05-28T00:14:22;14.73;;;6.50;;
76863;SDS011;65834;52.364;9.754;2023-05-28T00:16:52;13.77;;;5.57;;
76863;SDS011;65834;52.364;9.754;2023-05-28T00:19:25;14.95;;;5.53;;
76863;SDS011;65834;52.364;9.754;2023-05-28T00:21:54;15.95;;;5.75;;
76863;SDS011;65834;52.364;9.754;2023-05-28T00:24:24;15.23;;;6.20;;
76863;SDS011;65834;52.364;9.754;2023-05-28T00:26:54;13.25;;;5.60;;
76863;SDS011;65834;52.364;9.754;2023-05-28T00:29:23;14.48;;;5.72;;
76863;SDS011;65834;52.364;9.754;2023-05-28T00:31:53;14.80;;;5.70;;
76863;SDS011;65834;52.364;9.754;2023-05-28T00:34:26;14.13;;;5.68;;
76863;SDS011;65834;52.364;9.754;2023-05-28T00:36:56;13.35;;;5.50;;
76863;SDS011;65834;52.364;9.754;2023-05-28T00:39:26;13.93;;;5.80;;
76863;SDS011;65834;52.364;9.754;2023-05-28T00:42:04;16.15;;;6.28;;
76863;SDS011;65834;52.364;9.754;2023-05-28T00:44:37;16.13;;;5.88;;
76863;SDS011;65834;52.364;9.754;2023-05-28T00:47:08;14.43;;;5.68;;
76863;SDS011;65834;52.364;9.754;2023-05-28T00:49:40;15.70;;;6.50;;
76863;SDS011;65834;52.364;9.754;2023-05-28T00:54:40;15.07;;;5.72;;
76863;SDS011;65834;52.364;9.754;2023-05-28T00:57:10;15.15;;;5.93;;
76863;SDS011;65834;52.364;9.754;2023-05-28T00:59:41;15.07;;;5.80;;
76863;SDS011;65834;52.364;9.754;2023-05-28T01:02:12;14.75;;;6.20;;
76863;SDS011;65834;52.364;9.754;2023-05-28T01:04:45;13.95;;;5.65;;
76863;SDS011;65834;52.364;9.754;2023-05-28T01:07:14;14.73;;;6.10;;
76863;SDS011;65834;52.364;9.754;2023-05-28T01:09:44;16.92;;;6.75;;
76863;SDS011;65834;52.364;9.754;2023-05-28T01:12:13;14.02;;;5.28;;
76863;SDS011;65834;52.364;9.754;2023-05-28T01:14:43;15.48;;;6.30;;
76863;SDS011;65834;52.364;9.754;2023-05-28T01:17:13;14.02;;;5.80;;
76863;SDS011;65834;52.364;9.754;2023-05-28T01:19:47;16.10;;;6.90;;
76863;SDS011;65834;52.364;9.754;2023-05-28T01:22:17;14.07;;;5.90;;
76863;SDS011;65834;52.364;9.754;2023-05-28T01:24:50;13.38;;;5.70;;
76863;SDS011;65834;52.364;9.754;2023-05-28T01:27:20;12.20;;;5.43;;
76863;SDS011;65834;52.364;9.754;2023-05-28T01:29:50;13.07;;;5.40;;
76863;SDS011;65834;52.364;9.754;2023-05-28T01:32:20;16.55;;;6.10;;
76863;SDS011;65834;52.364;9.754;2023-05-28T01:34:51;14.82;;;6.28;;
76863;SDS011;65834;52.364;9.754;2023-05-28T01:37:21;14.93;;;5.65;;
76863;SDS011;65834;52.364;9.754;2023-05-28T01:39:53;15.93;;;5.60;;
76863;SDS011;65834;52.364;9.754;2023-05-28T01:42:24;17.80;;;6.63;;
76863;SDS011;65834;52.364;9.754;2023-05-28T01:44:54;14.85;;;5.50;;
76863;SDS011;65834;52.364;9.754;2023-05-28T01:47:30;15.10;;;6.18;;
76863;SDS011;65834;52.364;9.754;2023-05-28T01:50:01;16.45;;;6.35;;
76863;SDS011;65834;52.364;9.754;2023-05-28T01:52:31;15.13;;;6.57;;
76863;SDS011;65834;52.364;9.754;2023-05-28T01:55:04;13.93;;;5.93;;
76863;SDS011;65834;52.364;9.754;2023-05-28T01:57:35;15.40;;;6.30;;
76863;SDS011;65834;52.364;9.754;2023-05-28T02:00:06;14.60;;;6.55;;
76863;SDS011;65834;52.364;9.754;2023-05-28T02:02:43;14.95;;;6.50;;
76863;SDS011;65834;52.364;9.754;2023-05-28T02:05:15;15.18;;;7.10;;
76863;SDS011;65834;52.364;9.754;2023-05-28T02:07:47;15.10;;;7.18;;
76863;SDS011;65834;52.364;9.754;2023-05-28T02:10:19;16.55;;;6.60;;
76863;SDS011;65834;52.364;9.754;2023-05-28T02:12:50;16.83;;;6.88;;
76863;SDS011;65834;52.364;9.754;2023-05-28T02:15:20;14.20;;;6.32;;
76863;SDS011;65834;52.364;9.754;2023-05-28T02:17:50;14.90;;;6.60;;
76863;SDS011;65834;52.364;9.754;2023-05-28T02:20:20;16.08;;;6.78;;
76863;SDS011;65834;52.364;9.754;2023-05-28T02:22:49;16.00;;;6.72;;
76863;SDS011;65834;52.364;9.754;2023-05-28T02:25:22;15.60;;;6.38;;
76863;SDS011;65834;52.364;9.754;2023-05-28T02:27:51;15.38;;;6.15;;
76863;SDS011;65834;52.364;9.754;2023-05-28T02:30:21;16.42;;;6.95;;
76863;SDS011;65834;52.364;9.754;2023-05-28T02:32:50;16.35;;;6.15;;
76863;SDS011;65834;52.364;9.754;2023-05-28T02:35:21;16.48;;;6.53;;
76863;SDS011;65834;52.364;9.754;2023-05-28T02:37:51;16.20;;;6.80;;
76863;SDS011;65834;52.364;9.754;2023-05-28T02:40:23;15.15;;;6.25;;
76863;SDS011;65834;52.364;9.754;2023-05-28T02:42:53;14.68;;;6.53;;
76863;SDS011;65834;52.364;9.754;2023-05-28T02:45:22;15.30;;;6.82;;
76863;SDS011;65834;52.364;9.754;2023-05-28T02:47:52;16.65;;;7.22;;
76863;SDS011;65834;52.364;9.754;2023-05-28T02:50:21;15.73;;;6.10;;
76863;SDS011;65834;52.364;9.754;2023-05-28T02:53:01;15.13;;;5.75;;
76863;SDS011;65834;52.364;9.754;2023-05-28T02:55:33;14.65;;;5.75;;
76863;SDS011;65834;52.364;9.754;2023-05-28T02:58:03;16.90;;;6.30;;
76863;SDS011;65834;52.364;9.754;2023-05-28T03:00:32;14.55;;;6.35;;
76863;SDS011;65834;52.364;9.754;2023-05-28T03:03:02;13.90;;;6.22;;
76863;SDS011;65834;52.364;9.754;2023-05-28T03:05:33;12.80;;;6.18;;
76863;SDS011;65834;52.364;9.754;2023-05-28T03:08:02;13.00;;;5.85;;
76863;SDS011;65834;52.364;9.754;2023-05-28T03:10:35;13.90;;;5.93;;
76863;SDS011;65834;52.364;9.754;2023-05-28T03:13:04;13.77;;;5.50;;
76863;SDS011;65834;52.364;9.754;2023-05-28T03:15:34;14.93;;;6.28;;
76863;SDS011;65834;52.364;9.754;2023-05-28T03:18:04;14.57;;;6.72;;
76863;SDS011;65834;52.364;9.754;2023-05-28T03:20:37;18.88;;;7.80;;
76863;SDS011;65834;52.364;9.754;2023-05-28T03:23:07;16.58;;;7.63;;
76863;SDS011;65834;52.364;9.754;2023-05-28T03:25:59;16.33;;;8.18;;
76863;SDS011;65834;52.364;9.754;2023-05-28T03:28:29;19.30;;;8.50;;
76863;SDS011;65834;52.364;9.754;2023-05-28T03:31:25;16.90;;;7.70;;
76863;SDS011;65834;52.364;9.754;2023-05-28T03:33:59;19.33;;;8.25;;
76863;SDS011;65834;52.364;9.754;2023-05-28T03:36:29;16.67;;;7.78;;
76863;SDS011;65834;52.364;9.754;2023-05-28T03:39:00;16.35;;;7.57;;
76863;SDS011;65834;52.364;9.754;2023-05-28T03:41:33;19.13;;;7.13;;
76863;SDS011;65834;52.364;9.754;2023-05-28T03:44:03;15.93;;;7.40;;
76863;SDS011;65834;52.364;9.754;2023-05-28T03:46:34;15.98;;;7.05;;
76863;SDS011;65834;52.364;9.754;2023-05-28T03:49:03;14.67;;;6.60;;
76863;SDS011;65834;52.364;9.754;2023-05-28T03:51:33;16.90;;;6.30;;
76863;SDS011;65834;52.364;9.754;2023-05-28T03:54:03;14.25;;;6.60;;
76863;SDS011;65834;52.364;9.754;2023-05-28T03:56:36;15.90;;;6.85;;
76863;SDS011;65834;52.364;9.754;2023-05-28T03:59:06;16.07;;;6.50;;
76863;SDS011;65834;52.364;9.754;2023-05-28T04:01:36;16.40;;;7.03;;
76863;SDS011;65834;52.364;9.754;2023-05-28T04:04:06;14.75;;;6.28;;
76863;SDS011;65834;52.364;9.754;2023-05-28T04:06:36;15.82;;;6.63;;
76863;SDS011;65834;52.364;9.754;2023-05-28T04:09:06;14.02;;;6.10;;
76863;SDS011;65834;52.364;9.754;2023-05-28T04:11:39;15.57;;;6.63;;
76863;SDS011;65834;52.364;9.754;2023-05-28T04:14:12;14.88;;;6.63;;
76863;SDS011;65834;52.364;9.754;2023-05-28T04:16:41;15.57;;;6.50;;
76863;SDS011;65834;52.364;9.754;2023-05-28T04:19:11;15.47;;;6.93;;
76863;SDS011;65834;52.364;9.754;2023-05-28T04:21:40;13.70;;;6.72;;
76863;SDS011;65834;52.364;9.754;2023-05-28T04:24:11;15.17;;;7.00;;
76863;SDS011;65834;52.364;9.754;2023-05-28T04:26:43;18.17;;;6.95;;
76863;SDS011;65834;52.364;9.754;2023-05-28T04:29:14;14.90;;;6.50;;
76863;SDS011;65834;52.364;9.754;2023-05-28T04:31:44;15.83;;;6.40;;
76863;SDS011;65834;52.364;9.754;2023-05-28T04:34:14;14.38;;;6.60;;
76863;SDS011;65834;52.364;9.754;2023-05-28T04:36:46;14.97;;;6.63;;
76863;SDS011;65834;52.364;9.754;2023-05-28T04:39:17;15.43;;;6.43;;
76863;SDS011;65834;52.364;9.754;2023-05-28T04:41:51;14.45;;;5.93;;
76863;SDS011;65834;52.364;9.754;2023-05-28T04:44:21;15.07;;;5.60;;
76863;SDS011;65834;52.364;9.754;2023-05-28T04:46:52;15.27;;;5.88;;
76863;SDS011;65834;52.364;9.754;2023-05-28T04:51:55;13.03;;;5.30;;
76863;SDS011;65834;52.364;9.754;2023-05-28T04:54:25;14.38;;;5.70;;
76863;SDS011;65834;52.364;9.754;2023-05-28T04:56:58;13.60;;;5.23;;
76863;SDS011;65834;52.364;9.754;2023-05-28T04:59:28;14.70;;;5.28;;
76863;SDS011;65834;52.364;9.754;2023-05-28T05:01:59;12.43;;;5.13;;
76863;SDS011;65834;52.364;9.754;2023-05-28T05:04:29;12.10;;;5.07;;
76863;SDS011;65834;52.364;9.754;2023-05-28T05:06:59;14.40;;;5.43;;
76863;SDS011;65834;52.364;9.754;2023-05-28T05:09:28;14.98;;;5.35;;
76863;SDS011;65834;52.364;9.754;2023-05-28T05:12:00;15.57;;;5.80;;
76863;SDS011;65834;52.364;9.754;2023-05-28T05:14:30;13.68;;;5.00;;
76863;SDS011;65834;52.364;9.754;2023-05-28T05:17:00;13.57;;;5.60;;
76863;SDS011;65834;52.364;9.754;2023-05-28T05:19:29;16.65;;;5.53;;
76863;SDS011;65834;52.364;9.754;2023-05-28T05:21:59;13.95;;;5.47;;
76863;SDS011;65834;52.364;9.754;2023-05-28T05:24:31;13.65;;;5.47;;
76863;SDS011;65834;52.364;9.754;2023-05-28T05:27:03;14.68;;;5.85;;
76863;SDS011;65834;52.364;9.754;2023-05-28T05:32:03;16.10;;;5.63;;
76863;SDS011;65834;52.364;9.754;2023-05-28T05:34:34;13.55;;;5.72;;
76863;SDS011;65834;52.364;9.754;2023-05-28T05:37:23;13.98;;;5.57;;
76863;SDS011;65834;52.364;9.754;2023-05-28T05:40:22;16.25;;;5.55;;
76863;SDS011;65834;52.364;9.754;2023-05-28T05:43:17;14.00;;;5.45;;
76863;SDS011;65834;52.364;9.754;2023-05-28T05:45:47;14.20;;;5.57;;
76863;SDS011;65834;52.364;9.754;2023-05-28T05:48:17;12.68;;;5.05;;
76863;SDS011;65834;52.364;9.754;2023-05-28T05:50:48;12.60;;;4.68;;
76863;SDS011;65834;52.364;9.754;2023-05-28T05:53:21;16.52;;;4.82;;
76863;SDS011;65834;52.364;9.754;2023-05-28T05:55:52;14.23;;;5.25;;
76863;SDS011;65834;52.364;9.754;2023-05-28T05:58:25;16.05;;;5.75;;
76863;SDS011;65834;52.364;9.754;2023-05-28T06:00:54;14.07;;;5.03;;
76863;SDS011;65834;52.364;9.754;2023-05-28T06:03:24;12.07;;;4.93;;
76863;SDS011;65834;52.364;9.754;2023-05-28T06:06:23;16.67;;;5.32;;
76863;SDS011;65834;52.364;9.754;2023-05-28T06:09:16;13.80;;;5.15;;
76863;SDS011;65834;52.364;9.754;2023-05-28T06:11:53;15.80;;;5.60;;
76863;SDS011;65834;52.364;9.754;2023-05-28T06:14:25;14.40;;;5.05;;
76863;SDS011;65834;52.364;9.754;2023-05-28T06:16:55;14.20;;;5.57;;
76863;SDS011;65834;52.364;9.754;2023-05-28T06:19:29;14.35;;;4.95;;
76863;SDS011;65834;52.364;9.754;2023-05-28T06:22:02;12.85;;;5.10;;
76863;SDS011;65834;52.364;9.754;2023-05-28T06:24:31;15.52;;;5.70;;
76863;SDS011;65834;52.364;9.754;2023-05-28T06:27:01;13.52;;;4.97;;
76863;SDS011;65834;52.364;9.754;2023-05-28T06:29:33;16.73;;;4.78;;
76863;SDS011;65834;52.364;9.754;2023-05-28T06:32:03;14.77;;;4.90;;
76863;SDS011;65834;52.364;9.754;2023-05-28T06:34:33;17.45;;;5.85;;
76863;SDS011;65834;52.364;9.754;2023-05-28T06:37:03;16.10;;;5.82;;
76863;SDS011;65834;52.364;9.754;2023-05-28T06:39:33;15.05;;;5.63;;
76863;SDS011;65834;52.364;9.754;2023-05-28T06:42:03;16.42;;;5.65;;
76863;SDS011;65834;52.364;9.754;2023-05-28T06:45:03;14.98;;;5.00;;
76863;SDS011;65834;52.364;9.754;2023-05-28T06:50:02;11.30;;;4.40;;
76863;SDS011;65834;52.364;9.754;2023-05-28T06:52:33;15.68;;;5.88;;
76863;SDS011;65834;52.364;9.754;2023-05-28T06:55:02;12.48;;;4.35;;
76863;SDS011;65834;52.364;9.754;2023-05-28T06:57:38;13.48;;;5.00;;
76863;SDS011;65834;52.364;9.754;2023-05-28T07:00:28;13.48;;;4.70;;
76863;SDS011;65834;52.364;9.754;2023-05-28T07:03:13;13.73;;;4.53;;
76863;SDS011;65834;52.364;9.754;2023-05-28T07:06:05;12.15;;;4.43;;
76863;SDS011;65834;52.364;9.754;2023-05-28T07:08:36;12.23;;;4.18;;
76863;SDS011;65834;52.364;9.754;2023-05-28T07:11:07;16.75;;;4.43;;
76863;SDS011;65834;52.364;9.754;2023-05-28T07:13:39;12.07;;;4.23;;
76863;SDS011;65834;52.364;9.754;2023-05-28T07:16:12;13.43;;;5.30;;
76863;SDS011;65834;52.364;9.754;2023-05-28T07:18:43;12.77;;;4.20;;
76863;SDS011;65834;52.364;9.754;2023-05-28T07:21:14;12.35;;;4.28;;
76863;SDS011;65834;52.364;9.754;2023-05-28T07:23:45;14.18;;;4.80;;
76863;SDS011;65834;52.364;9.754;2023-05-28T07:26:15;12.90;;;4.00;;
76863;SDS011;65834;52.364;9.754;2023-05-28T07:28:45;10.95;;;3.80;;
76863;SDS011;65834;52.364;9.754;2023-05-28T07:31:17;14.50;;;4.50;;
76863;SDS011;65834;52.364;9.754;2023-05-28T07:33:47;15.70;;;5.10;;
76863;SDS011;65834;52.364;9.754;2023-05-28T07:36:16;13.40;;;4.72;;
76863;SDS011;65834;52.364;9.754;2023-05-28T07:38:46;11.57;;;3.85;;
76863;SDS011;65834;52.364;9.754;2023-05-28T07:41:15;9.80;;;3.72;;
76863;SDS011;65834;52.364;9.754;2023-05-28T07:43:50;14.00;;;4.03;;
76863;SDS011;65834;52.364;9.754;2023-05-28T07:46:25;10.68;;;3.85;;
76863;SDS011;65834;52.364;9.754;2023-05-28T07:49:04;11.73;;;3.47;;
76863;SDS011;65834;52.364;9.754;2023-05-28T07:51:46;9.40;;;3.00;;
76863;SDS011;65834;52.364;9.754;2023-05-28T07:54:21;11.70;;;3.88;;
76863;SDS011;65834;52.364;9.754;2023-05-28T07:56:51;11.45;;;3.72;;
76863;SDS011;65834;52.364;9.754;2023-05-28T07:59:33;11.53;;;3.20;;
76863;SDS011;65834;52.364;9.754;2023-05-28T08:02:06;9.40;;;2.92;;
76863;SDS011;65834;52.364;9.754;2023-05-28T08:04:36;9.20;;;2.75;;
76863;SDS011;65834;52.364;9.754;2023-05-28T08:07:08;8.45;;;2.70;;
76863;SDS011;65834;52.364;9.754;2023-05-28T08:09:39;11.63;;;2.83;;
76863;SDS011;65834;52.364;9.754;2023-05-28T08:12:11;8.30;;;2.55;;
76863;SDS011;65834;52.364;9.754;2023-05-28T08:14:40;8.38;;;2.60;;
76863;SDS011;65834;52.364;9.754;2023-05-28T08:17:12;8.40;;;2.60;;
76863;SDS011;65834;52.364;9.754;2023-05-28T08:19:46;7.15;;;2.65;;
76863;SDS011;65834;52.364;9.754;2023-05-28T08:22:45;7.53;;;2.65;;
76863;SDS011;65834;52.364;9.754;2023-05-28T08:25:15;7.47;;;2.40;;
76863;SDS011;65834;52.364;9.754;2023-05-28T08:27:47;6.40;;;2.28;;
76863;SDS011;65834;52.364;9.754;2023-05-28T08:30:18;8.00;;;2.25;;
76863;SDS011;65834;52.364;9.754;2023-05-28T08:32:59;6.97;;;2.63;;
76863;SDS011;65834;52.364;9.754;2023-05-28T08:35:29;9.40;;;2.80;;
76863;SDS011;65834;52.364;9.754;2023-05-28T08:37:58;8.27;;;2.67;;
76863;SDS011;65834;52.364;9.754;2023-05-28T08:40:34;7.18;;;2.60;;
76863;SDS011;65834;52.364;9.754;2023-05-28T08:43:08;10.82;;;2.88;;
76863;SDS011;65834;52.364;9.754;2023-05-28T08:45:39;6.85;;;2.35;;
76863;SDS011;65834;52.364;9.754;2023-05-28T08:48:12;7.57;;;2.50;;
76863;SDS011;65834;52.364;9.754;2023-05-28T08:50:45;8.25;;;2.70;;
76863;SDS011;65834;52.364;9.754;2023-05-28T08:53:26;7.00;;;2.40;;
76863;SDS011;65834;52.364;9.754;2023-05-28T08:56:00;10.75;;;2.60;;
76863;SDS011;65834;52.364;9.754;2023-05-28T08:58:32;9.32;;;2.50;;
76863;SDS011;65834;52.364;9.754;2023-05-28T09:01:03;11.07;;;2.90;;
76863;SDS011;65834;52.364;9.754;2023-05-28T09:03:53;6.88;;;2.25;;
76863;SDS011;65834;52.364;9.754;2023-05-28T09:06:29;6.85;;;2.42;;
76863;SDS011;65834;52.364;9.754;2023-05-28T09:09:00;8.07;;;2.58;;
76863;SDS011;65834;52.364;9.754;2023-05-28T09:11:38;7.55;;;2.70;;
76863;SDS011;65834;52.364;9.754;2023-05-28T09:14:08;8.93;;;2.40;;
76863;SDS011;65834;52.364;9.754;2023-05-28T09:16:40;7.25;;;2.65;;
76863;SDS011;65834;52.364;9.754;2023-05-28T09:19:18;8.40;;;2.58;;
76863;SDS011;65834;52.364;9.754;2023-05-28T09:21:52;8.65;;;2.80;;
76863;SDS011;65834;52.364;9.754;2023-05-28T09:24:31;10.90;;;3.05;;
76863;SDS011;65834;52.364;9.754;2023-05-28T09:27:36;10.80;;;2.92;;
76863;SDS011;65834;52.364;9.754;2023-05-28T09:30:07;10.68;;;2.97;;
76863;SDS011;65834;52.364;9.754;2023-05-28T09:32:37;11.35;;;3.60;;
76863;SDS011;65834;52.364;9.754;2023-05-28T09:35:10;8.80;;;3.22;;
76863;SDS011;65834;52.364;9.754;2023-05-28T09:37:40;9.35;;;2.83;;
76863;SDS011;65834;52.364;9.754;2023-05-28T09:40:09;9.23;;;2.90;;
76863;SDS011;65834;52.364;9.754;2023-05-28T09:42:40;9.23;;;3.13;;
76863;SDS011;65834;52.364;9.754;2023-05-28T09:45:10;9.63;;;3.00;;
76863;SDS011;65834;52.364;9.754;2023-05-28T09:47:44;10.23;;;3.38;;
76863;SDS011;65834;52.364;9.754;2023-05-28T09:50:16;9.00;;;2.75;;
76863;SDS011;65834;52.364;9.754;2023-05-28T09:52:46;9.02;;;3.25;;
76863;SDS011;65834;52.364;9.754;2023-05-28T09:55:16;8.60;;;3.10;;
76863;SDS011;65834;52.364;9.754;2023-05-28T09:57:50;8.38;;;3.03;;
76863;SDS011;65834;52.364;9.754;2023-05-28T10:00:29;10.88;;;3.25;;
76863;SDS011;65834;52.364;9.754;2023-05-28T10:03:05;11.25;;;3.00;;
76863;SDS011;65834;52.364;9.754;2023-05-28T10:05:42;10.18;;;2.78;;
76863;SDS011;65834;52.364;9.754;2023-05-28T10:08:15;9.40;;;2.90;;
76863;SDS011;65834;52.364;9.754;2023-05-28T10:10:46;8.75;;;2.70;;
76863;SDS011;65834;52.364;9.754;2023-05-28T10:13:23;12.38;;;2.95;;
76863;SDS011;65834;52.364;9.754;2023-05-28T10:15:54;10.35;;;3.42;;
76863;SDS011;65834;52.364;9.754;2023-05-28T10:18:24;9.75;;;3.10;;
76863;SDS011;65834;52.364;9.754;2023-05-28T10:20:57;10.32;;;3.15;;
76863;SDS011;65834;52.364;9.754;2023-05-28T10:23:28;9.30;;;3.13;;
76863;SDS011;65834;52.364;9.754;2023-05-28T10:25:58;10.65;;;3.10;;
76863;SDS011;65834;52.364;9.754;2023-05-28T10:28:28;9.95;;;2.72;;
76863;SDS011;65834;52.364;9.754;2023-05-28T10:30:59;10.35;;;3.20;;
76863;SDS011;65834;52.364;9.754;2023-05-28T10:33:36;9.63;;;2.88;;
76863;SDS011;65834;52.364;9.754;2023-05-28T10:36:11;8.77;;;2.90;;
76863;SDS011;65834;52.364;9.754;2023-05-28T10:38:42;10.15;;;3.10;;
76863;SDS011;65834;52.364;9.754;2023-05-28T10:41:20;8.15;;;3.10;;
76863;SDS011;65834;52.364;9.754;2023-05-28T10:43:51;11.13;;;2.88;;
76863;SDS011;65834;52.364;9.754;2023-05-28T10:46:25;7.65;;;2.88;;
76863;SDS011;65834;52.364;9.754;2023-05-28T10:49:14;8.02;;;2.70;;
76863;SDS011;65834;52.364;9.754;2023-05-28T10:51:54;6.10;;;2.80;;
76863;SDS011;65834;52.364;9.754;2023-05-28T10:57:21;11.75;;;3.15;;
76863;SDS011;65834;52.364;9.754;2023-05-28T10:59:51;8.75;;;2.88;;
76863;SDS011;65834;52.364;9.754;2023-05-28T11:02:30;8.23;;;2.97;;
76863;SDS011;65834;52.364;9.754;2023-05-28T11:05:03;9.27;;;3.00;;
76863;SDS011;65834;52.364;9.754;2023-05-28T11:07:37;7.18;;;2.80;;
76863;SDS011;65834;52.364;9.754;2023-05-28T11:10:08;9.20;;;2.83;;
76863;SDS011;65834;52.364;9.754;2023-05-28T11:12:40;10.63;;;2.65;;
76863;SDS011;65834;52.364;9.754;2023-05-28T11:15:12;10.07;;;2.90;;
76863;SDS011;65834;52.364;9.754;2023-05-28T11:17:43;8.45;;;3.15;;
76863;SDS011;65834;52.364;9.754;2023-05-28T11:20:15;11.73;;;3.40;;
76863;SDS011;65834;52.364;9.754;2023-05-28T11:22:49;9.00;;;2.85;;
76863;SDS011;65834;52.364;9.754;2023-05-28T11:25:18;7.93;;;2.78;;
76863;SDS011;65834;52.364;9.754;2023-05-28T11:27:52;8.93;;;3.40;;
76863;SDS011;65834;52.364;9.754;2023-05-28T11:30:25;9.20;;;2.90;;
76863;SDS011;65834;52.364;9.754;2023-05-28T11:32:54;8.15;;;2.90;;
76863;SDS011;65834;52.364;9.754;2023-05-28T11:35:25;9.30;;;3.35;;
76863;SDS011;65834;52.364;9.754;2023-05-28T11:37:58;10.85;;;3.13;;
76863;SDS011;65834;52.364;9.754;2023-05-28T11:40:32;7.13;;;2.60;;
76863;SDS011;65834;52.364;9.754;2023-05-28T11:43:03;11.15;;;2.75;;
76863;SDS011;65834;52.364;9.754;2023-05-28T11:45:35;10.40;;;3.40;;
76863;SDS011;65834;52.364;9.754;2023-05-28T11:48:10;9.48;;;2.70;;
76863;SDS011;65834;52.364;9.754;2023-05-28T11:50:40;10.32;;;3.20;;
76863;SDS011;65834;52.364;9.754;2023-05-28T11:53:12;10.55;;;3.22;;
76863;SDS011;65834;52.364;9.754;2023-05-28T11:55:41;10.00;;;3.55;;
76863;SDS011;65834;52.364;9.754;2023-05-28T11:58:11;9.55;;;3.13;;
76863;SDS011;65834;52.364;9.754;2023-05-28T12:00:41;11.63;;;3.28;;
76863;SDS011;65834;52.364;9.754;2023-05-28T12:03:10;9.82;;;2.92;;
76863;SDS011;65834;52.364;9.754;2023-05-28T12:05:40;7.53;;;2.67;;
76863;SDS011;65834;52.364;9.754;2023-05-28T12:08:12;9.35;;;2.88;;
76863;SDS011;65834;52.364;9.754;2023-05-28T12:10:46;9.30;;;3.60;;
76863;SDS011;65834;52.364;9.754;2023-05-28T12:13:16;9.95;;;2.90;;
76863;SDS011;65834;52.364;9.754;2023-05-28T12:15:46;12.50;;;3.72;;
76863;SDS011;65834;52.364;9.754;2023-05-28T12:18:15;11.63;;;3.30;;
76863;SDS011;65834;52.364;9.754;2023-05-28T12:20:50;8.38;;;3.10;;
76863;SDS011;65834;52.364;9.754;2023-05-28T12:23:22;8.38;;;2.70;;
76863;SDS011;65834;52.364;9.754;2023-05-28T12:25:52;10.18;;;3.05;;
76863;SDS011;65834;52.364;9.754;2023-05-28T12:28:22;9.30;;;3.25;;
76863;SDS011;65834;52.364;9.754;2023-05-28T12:30:52;10.52;;;3.15;;
76863;SDS011;65834;52.364;9.754;2023-05-28T12:33:23;11.60;;;2.95;;
76863;SDS011;65834;52.364;9.754;2023-05-28T12:35:52;10.23;;;3.38;;
76863;SDS011;65834;52.364;9.754;2023-05-28T12:38:25;9.40;;;3.22;;
76863;SDS011;65834;52.364;9.754;2023-05-28T12:40:55;11.13;;;3.30;;
76863;SDS011;65834;52.364;9.754;2023-05-28T12:43:25;10.18;;;3.17;;
76863;SDS011;65834;52.364;9.754;2023-05-28T12:45:55;9.23;;;2.72;;
76863;SDS011;65834;52.364;9.754;2023-05-28T12:48:25;10.50;;;2.72;;
76863;SDS011;65834;52.364;9.754;2023-05-28T12:50:54;8.30;;;3.33;;
76863;SDS011;65834;52.364;9.754;2023-05-28T12:53:26;12.00;;;3.65;;
76863;SDS011;65834;52.364;9.754;2023-05-28T12:55:56;9.13;;;3.00;;
76863;SDS011;65834;52.364;9.754;2023-05-28T12:58:26;11.95;;;3.80;;
76863;SDS011;65834;52.364;9.754;2023-05-28T13:00:56;10.88;;;3.30;;
76863;SDS011;65834;52.364;9.754;2023-05-28T13:03:26;9.73;;;3.40;;
76863;SDS011;65834;52.364;9.754;2023-05-28T13:05:55;11.73;;;3.30;;
76863;SDS011;65834;52.364;9.754;2023-05-28T13:08:28;10.35;;;2.78;;
76863;SDS011;65834;52.364;9.754;2023-05-28T13:10:57;7.53;;;2.95;;
76863;SDS011;65834;52.364;9.754;2023-05-28T13:13:27;9.57;;;3.22;;
76863;SDS011;65834;52.364;9.754;2023-05-28T13:15:56;11.48;;;3.10;;
76863;SDS011;65834;52.364;9.754;2023-05-28T13:18:26;10.13;;;3.53;;
76863;SDS011;65834;52.364;9.754;2023-05-28T13:20:56;9.07;;;2.97;;
76863;SDS011;65834;52.364;9.754;2023-05-28T13:23:28;10.15;;;3.38;;
76863;SDS011;65834;52.364;9.754;2023-05-28T13:25:58;10.95;;;3.33;;
76863;SDS011;65834;52.364;9.754;2023-05-28T13:28:27;9.23;;;3.17;;
76863;SDS011;65834;52.364;9.754;2023-05-28T13:30:57;9.80;;;3.05;;
76863;SDS011;65834;52.364;9.754;2023-05-28T13:33:27;8.23;;;3.20;;
76863;SDS011;65834;52.364;9.754;2023-05-28T13:35:56;9.57;;;3.28;;
76863;SDS011;65834;52.364;9.754;2023-05-28T13:38:30;9.13;;;3.42;;
76863;SDS011;65834;52.364;9.754;2023-05-28T13:41:00;8.88;;;3.10;;
76863;SDS011;65834;52.364;9.754;2023-05-28T13:43:31;10.20;;;3.30;;
76863;SDS011;65834;52.364;9.754;2023-05-28T13:48:33;12.07;;;3.50;;
76863;SDS011;65834;52.364;9.754;2023-05-28T13:51:02;9.65;;;3.42;;
76863;SDS011;65834;52.364;9.754;2023-05-28T13:53:35;11.70;;;3.50;;
76863;SDS011;65834;52.364;9.754;2023-05-28T13:56:05;8.77;;;3.30;;
76863;SDS011;65834;52.364;9.754;2023-05-28T13:58:34;9.02;;;3.40;;
76863;SDS011;65834;52.364;9.754;2023-05-28T14:01:05;9.30;;;3.08;;
76863;SDS011;65834;52.364;9.754;2023-05-28T14:03:37;11.95;;;3.17;;
76863;SDS011;65834;52.364;9.754;2023-05-28T14:06:12;11.00;;;3.28;;
76863;SDS011;65834;52.364;9.754;2023-05-28T14:08:44;10.18;;;2.90;;
76863;SDS011;65834;52.364;9.754;2023-05-28T14:11:13;10.27;;;4.05;;
76863;SDS011;65834;52.364;9.754;2023-05-28T14:13:44;8.70;;;3.40;;
76863;SDS011;65834;52.364;9.754;2023-05-28T14:16:13;10.63;;;3.28;;
76863;SDS011;65834;52.364;9.754;2023-05-28T14:18:43;9.30;;;3.70;;
76863;SDS011;65834;52.364;9.754;2023-05-28T14:21:12;9.02;;;3.53;;
76863;SDS011;65834;52.364;9.754;2023-05-28T14:23:45;11.02;;;3.67;;
76863;SDS011;65834;52.364;9.754;2023-05-28T14:26:14;10.75;;;3.88;;
76863;SDS011;65834;52.364;9.754;2023-05-28T14:28:44;9.07;;;3.38;;
76863;SDS011;65834;52.364;9.754;2023-05-28T14:31:13;10.90;;;3.28;;
76863;SDS011;65834;52.364;9.754;2023-05-28T14:33:43;10.05;;;3.50;;
76863;SDS011;65834;52.364;9.754;2023-05-28T14:36:12;9.80;;;3.30;;
76863;SDS011;65834;52.364;9.754;2023-05-28T14:38:45;12.27;;;3.75;;
76863;SDS011;65834;52.364;9.754;2023-05-28T14:41:15;8.73;;;3.35;;
76863;SDS011;65834;52.364;9.754;2023-05-28T14:43:44;9.85;;;3.20;;
76863;SDS011;65834;52.364;9.754;2023-05-28T14:46:14;10.35;;;3.60;;
76863;SDS011;65834;52.364;9.754;2023-05-28T14:48:50;10.07;;;3.40;;
76863;SDS011;65834;52.364;9.754;2023-05-28T14:51:20;8.95;;;3.50;;
76863;SDS011;65834;52.364;9.754;2023-05-28T14:53:52;11.32;;;3.78;;
76863;SDS011;65834;52.364;9.754;2023-05-28T14:56:22;11.07;;;3.63;;
76863;SDS011;65834;52.364;9.754;2023-05-28T14:58:52;11.38;;;3.92;;
76863;SDS011;65834;52.364;9.754;2023-05-28T15:01:22;11.85;;;3.50;;
76863;SDS011;65834;52.364;9.754;2023-05-28T15:03:52;11.90;;;3.72;;
76863;SDS011;65834;52.364;9.754;2023-05-28T15:06:22;10.77;;;3.50;;
76863;SDS011;65834;52.364;9.754;2023-05-28T15:08:54;10.10;;;3.53;;
76863;SDS011;65834;52.364;9.754;2023-05-28T15:11:24;11.90;;;3.78;;
76863;SDS011;65834;52.364;9.754;2023-05-28T15:13:53;12.20;;;3.58;;
76863;SDS011;65834;52.364;9.754;2023-05-28T15:16:23;11.63;;;3.90;;
76863;SDS011;65834;52.364;9.754;2023-05-28T15:18:52;12.80;;;3.90;;
76863;SDS011;65834;52.364;9.754;2023-05-28T15:21:22;10.25;;;3.85;;
76863;SDS011;65834;52.364;9.754;2023-05-28T15:23:54;10.30;;;3.30;;